Time;durP1;ratioP1;P1;durP2;ratioP2;P2;SDS_P1;SDS_P2;PMS_P1;PMS_P2;Temp;Humidity;BMP_temperature;BMP_pressure;BME280_temperature;BME280_humidity;BME280_pressure;Samples;Min_cycle;Max_cycle;Signal;HPM_P1;HPM_P2
2021/07/30 00:01:00;;;;;;;22.88;10.27;;;;;;;22.64;84.36;97086.84;5056409;28;20111;-75
2021/07/30 00:03:26;;;;;;;32.60;10.48;;;;;;;22.60;84.78;97085.50;5072927;28;20062;-76
2021/07/30 00:05:52;;;;;;;24.92;10.05;;;;;;;22.58;84.68;97090.25;5056343;28;20031;-76
2021/07/30 00:08:18;;;;;;;20.88;10.05;;;;;;;22.46;85.74;97081.66;5072907;28;20020;-77
2021/07/30 00:10:46;;;;;;;31.95;11.68;;;;;;;22.53;85.36;97085.38;5072924;28;20089;-75
2021/07/30 00:13:13;;;;;;;24.92;10.38;;;;;;;22.57;85.41;97085.84;5072861;28;20037;-75
2021/07/30 00:15:39;;;;;;;24.88;10.82;;;;;;;22.52;85.27;97080.06;5056178;28;20020;-75
2021/07/30 00:18:05;;;;;;;25.55;10.55;;;;;;;22.60;84.39;97085.50;5073001;28;20491;-75
2021/07/30 00:20:30;;;;;;;28.15;11.20;;;;;;;22.49;84.75;97069.53;5056015;28;20035;-75
2021/07/30 00:22:56;;;;;;;24.35;10.57;;;;;;;22.57;85.59;97077.69;5056035;28;20032;-75
2021/07/30 00:25:21;;;;;;;27.25;11.45;;;;;;;22.51;85.79;97075.69;5072720;28;20024;-76
2021/07/30 00:27:47;;;;;;;24.00;10.32;;;;;;;22.58;85.19;97069.28;5056159;28;20093;-76
2021/07/30 00:30:13;;;;;;;27.17;10.10;;;;;;;22.63;84.85;97079.69;5073518;28;20020;-76
2021/07/30 00:32:38;;;;;;;21.13;10.82;;;;;;;22.65;84.51;97094.00;5076336;28;20479;-76
2021/07/30 00:35:04;;;;;;;22.23;9.60;;;;;;;22.63;84.82;97085.13;5059804;28;20012;-76
2021/07/30 00:37:30;;;;;;;30.33;10.65;;;;;;;22.61;85.27;97081.75;5059211;28;20499;-76
2021/07/30 00:39:55;;;;;;;25.98;10.27;;;;;;;22.70;84.72;97075.25;5059485;28;20044;-75
2021/07/30 00:42:21;;;;;;;24.30;10.00;;;;;;;22.76;84.60;97071.78;5059633;28;20024;-76
2021/07/30 00:44:46;;;;;;;23.52;9.98;;;;;;;22.73;84.39;97074.88;5076257;28;20077;-76
2021/07/30 00:47:12;;;;;;;23.25;10.15;;;;;;;22.79;83.86;97085.06;5076259;28;20490;-76
2021/07/30 00:49:39;;;;;;;26.38;10.80;;;;;;;22.71;84.38;97074.19;5076072;28;20039;-76
2021/07/30 00:52:05;;;;;;;24.17;9.95;;;;;;;22.75;84.31;97074.66;5059284;28;20093;-75
2021/07/30 00:54:31;;;;;;;19.40;9.90;;;;;;;22.77;84.06;97075.31;5075800;28;20032;-76
2021/07/30 00:56:56;;;;;;;28.20;10.35;;;;;;;22.74;83.81;97078.41;5094125;28;20544;-76
2021/07/30 00:59:23;;;;;;;18.98;8.98;;;;;;;22.63;82.52;97080.53;5076076;28;20537;-76
2021/07/30 01:01:49;;;;;;;27.95;9.88;;;;;;;22.66;80.96;97085.66;5075924;28;20467;-76
2021/07/30 01:04:15;;;;;;;21.23;9.63;;;;;;;22.58;81.29;97073.91;5076210;28;20024;-76
2021/07/30 01:06:41;;;;;;;28.92;9.77;;;;;;;22.47;80.89;97068.88;5075845;28;20035;-76
2021/07/30 01:09:07;;;;;;;21.55;9.15;;;;;;;22.46;82.33;97080.81;5075935;28;20081;-75
2021/07/30 01:11:33;;;;;;;32.22;9.48;;;;;;;22.48;82.10;97081.50;5093838;28;20455;-76
2021/07/30 01:13:59;;;;;;;19.70;9.32;;;;;;;22.49;82.28;97088.63;5075980;28;20059;-77
2021/07/30 01:16:25;;;;;;;26.85;10.45;;;;;;;22.45;82.76;97084.56;5093784;28;20114;-76
2021/07/30 01:18:50;;;;;;;28.40;9.95;;;;;;;22.37;83.78;97087.34;5058816;28;20028;-77
2021/07/30 01:21:23;;;;;;;26.23;10.00;;;;;;;22.34;84.21;97080.38;5093737;28;20027;-76
2021/07/30 01:23:49;;;;;;;26.98;10.88;;;;;;;22.09;86.02;97081.53;5093474;28;20027;-76
2021/07/30 01:26:16;;;;;;;26.00;10.43;;;;;;;21.96;87.15;97073.94;5058904;28;20157;-76
2021/07/30 01:28:41;;;;;;;22.40;10.32;;;;;;;21.82;89.29;97082.81;5075443;28;20506;-76
2021/07/30 01:31:07;;;;;;;27.55;11.20;;;;;;;21.71;89.64;97072.31;5058817;28;20024;-76
2021/07/30 01:33:32;;;;;;;20.88;9.93;;;;;;;21.63;90.45;97075.91;5093245;28;20463;-76
2021/07/30 01:35:58;;;;;;;25.92;11.38;;;;;;;21.51;90.58;97071.84;5075356;28;20521;-76
2021/07/30 01:38:24;;;;;;;25.90;10.73;;;;;;;21.53;91.22;97082.59;5058533;28;20052;-76
2021/07/30 01:40:49;;;;;;;25.45;11.20;;;;;;;21.48;90.66;97076.78;5092953;28;20024;-77
2021/07/30 01:43:15;;;;;;;24.33;10.63;;;;;;;21.53;89.61;97074.41;5058653;28;20028;-77
2021/07/30 01:45:40;;;;;;;22.52;10.43;;;;;;;21.45;90.49;97063.53;5058546;28;20032;-76
2021/07/30 01:48:06;;;;;;;32.15;10.55;;;;;;;21.49;90.96;97073.06;5075362;28;20116;-77
2021/07/30 01:50:31;;;;;;;20.77;10.23;;;;;;;21.45;91.40;97074.41;5058169;28;20115;-76
2021/07/30 01:52:57;;;;;;;29.85;11.38;;;;;;;21.43;91.33;97071.88;5093297;28;20103;-77
2021/07/30 01:55:24;;;;;;;25.90;11.98;;;;;;;21.37;92.36;97069.88;5058737;28;20570;-77
2021/07/30 01:57:50;;;;;;;29.65;11.10;;;;;;;21.27;92.46;97073.78;5058164;28;20457;-76
2021/07/30 02:00:15;;;;;;;26.85;10.77;;;;;;;21.20;93.38;97068.19;5074901;28;20032;-77
2021/07/30 02:02:41;;;;;;;25.38;11.55;;;;;;;21.19;94.26;97061.06;5092773;28;20023;-76
2021/07/30 02:05:08;;;;;;;24.38;10.40;;;;;;;21.19;94.56;97054.78;5058101;28;20055;-76
2021/07/30 02:07:37;;;;;;;19.17;10.48;;;;;;;21.18;95.26;97067.50;5074674;28;20024;-76
2021/07/30 02:10:07;;;;;;;30.38;10.80;;;;;;;21.25;94.93;97071.25;5057929;28;20046;-76
2021/07/30 02:14:15;;;;;;;32.58;11.07;;;;;;;21.16;94.32;97068.72;5057746;28;20086;-77
2021/07/30 02:15:21;;;;;;;26.63;11.05;;;;;;;21.22;93.24;97068.03;5078068;28;20036;-76
2021/07/30 02:17:47;;;;;;;30.58;11.27;;;;;;;21.24;93.66;97064.09;5057467;28;20453;-76
2021/07/30 02:20:12;;;;;;;28.05;10.55;;;;;;;21.13;94.12;97047.28;5074742;28;20031;-77
2021/07/30 02:22:38;;;;;;;24.50;10.73;;;;;;;21.06;94.08;97045.25;5057637;28;20522;-76
2021/07/30 02:25:04;;;;;;;27.58;10.15;;;;;;;21.15;91.52;97058.84;5074268;28;20031;-76
2021/07/30 02:27:29;;;;;;;29.10;10.23;;;;;;;20.97;90.88;97046.28;5074382;28;20035;-76
2021/07/30 02:29:55;;;;;;;24.40;10.18;;;;;;;21.06;90.43;97063.41;5092286;28;20153;-76
2021/07/30 02:32:20;;;;;;;21.95;9.93;;;;;;;21.03;89.46;97053.75;5057529;28;20027;-77
2021/07/30 02:34:46;;;;;;;28.33;9.82;;;;;;;21.10;90.04;97064.81;5057277;28;20055;-77
2021/07/30 02:37:11;;;;;;;25.50;10.35;;;;;;;20.95;90.49;97063.75;5074013;28;20044;-76
2021/07/30 02:39:37;;;;;;;25.75;10.48;;;;;;;21.06;88.96;97071.56;5074051;28;20416;-77
2021/07/30 02:42:02;;;;;;;20.20;9.65;;;;;;;21.01;90.46;97072.06;5057472;28;20073;-76
2021/07/30 02:44:28;;;;;;;33.97;10.45;;;;;;;21.03;91.91;97066.47;5057391;28;20043;-76
2021/07/30 02:46:53;;;;;;;37.60;12.13;;;;;;;20.92;92.97;97048.63;5073716;28;20063;-76
2021/07/30 02:49:19;;;;;;;28.17;10.93;;;;;;;21.08;93.48;97069.53;5057200;28;20032;-76
2021/07/30 02:51:44;;;;;;;29.80;11.30;;;;;;;21.07;94.21;97067.84;5091784;28;20032;-76
2021/07/30 02:54:10;;;;;;;34.78;11.45;;;;;;;21.17;94.35;97081.28;5073457;28;20106;-76
2021/07/30 02:56:35;;;;;;;29.35;11.13;;;;;;;21.13;94.44;97069.06;5073894;28;20024;-76
2021/07/30 02:59:02;;;;;;;31.95;11.35;;;;;;;21.15;94.36;97078.75;5057000;28;20038;-76
2021/07/30 03:01:27;;;;;;;20.60;10.95;;;;;;;21.12;94.00;97064.63;5091764;28;20549;-77
2021/07/30 03:03:53;;;;;;;30.65;12.02;;;;;;;21.30;93.82;97087.91;5091607;28;20028;-77
2021/07/30 03:06:18;;;;;;;31.70;11.85;;;;;;;21.33;93.92;97089.41;5091863;28;20031;-76
2021/07/30 03:08:44;;;;;;;27.15;12.40;;;;;;;21.20;93.78;97081.78;5073454;28;20016;-77
2021/07/30 03:11:09;;;;;;;34.97;12.38;;;;;;;21.33;93.54;97100.31;5091680;28;20049;-76
2021/07/30 03:13:35;;;;;;;42.17;13.00;;;;;;;21.27;92.91;97088.25;5057064;28;20502;-76
2021/07/30 03:16:00;;;;;;;25.13;11.55;;;;;;;21.26;93.26;97093.84;5091623;28;20039;-76
2021/07/30 03:18:26;;;;;;;22.27;10.15;;;;;;;21.20;91.37;97087.22;5091572;28;20039;-77
2021/07/30 03:20:52;;;;;;;34.58;10.93;;;;;;;21.31;90.92;97103.22;5073541;28;20035;-76
2021/07/30 03:23:18;;;;;;;26.35;10.73;;;;;;;21.30;88.93;97111.53;5073551;28;20023;-76
2021/07/30 03:25:43;;;;;;;29.55;10.05;;;;;;;21.25;87.48;97113.94;5091509;28;20487;-77
2021/07/30 03:28:09;;;;;;;31.55;10.50;;;;;;;21.17;86.34;97082.13;5073380;28;20027;-76
2021/07/30 03:30:34;;;;;;;26.08;11.40;;;;;;;21.31;85.48;97121.41;5056777;28;20072;-76
2021/07/30 03:33:00;;;;;;;28.67;10.48;;;;;;;21.27;85.82;97117.31;5073306;28;20031;-77
2021/07/30 03:35:25;;;;;;;32.28;10.52;;;;;;;21.18;86.63;97112.91;5056639;28;20036;-77
2021/07/30 03:37:51;;;;;;;23.48;10.02;;;;;;;21.17;86.17;97109.34;5091141;28;20530;-76
2021/07/30 03:40:16;;;;;;;29.75;10.68;;;;;;;21.15;86.73;97107.81;5056879;28;20043;-76
2021/07/30 03:42:42;;;;;;;28.60;11.07;;;;;;;21.18;86.48;97107.47;5073440;28;20032;-76
2021/07/30 03:45:08;;;;;;;29.45;10.68;;;;;;;21.08;87.42;97102.16;5056256;28;20469;-77
2021/07/30 03:47:33;;;;;;;25.13;10.75;;;;;;;21.14;87.26;97111.53;5073302;28;20032;-76
2021/07/30 03:49:59;;;;;;;30.17;10.85;;;;;;;21.21;86.87;97116.13;5072865;28;20062;-77
2021/07/30 03:52:24;;;;;;;35.70;11.10;;;;;;;21.25;86.77;97122.94;5073285;28;20483;-77
2021/07/30 03:54:50;;;;;;;32.13;11.00;;;;;;;21.22;87.38;97112.41;5091001;28;20035;-76
2021/07/30 03:57:15;;;;;;;38.65;11.50;;;;;;;21.29;87.07;97109.81;5091099;28;20108;-76
2021/07/30 03:59:43;;;;;;;34.72;11.55;;;;;;;21.31;87.09;97113.25;5056394;28;20101;-75
2021/07/30 04:02:10;;;;;;;34.95;11.75;;;;;;;21.38;86.50;97119.69;5056316;28;20040;-76
2021/07/30 04:04:35;;;;;;;35.42;12.32;;;;;;;21.36;87.26;97121.72;5092815;28;20111;-76
2021/07/30 04:07:01;;;;;;;39.67;14.85;;;;;;;21.41;88.35;97119.34;5076973;28;20115;-76
2021/07/30 04:09:26;;;;;;;33.15;10.93;;;;;;;21.31;87.63;97107.81;5077243;28;20475;-76
2021/07/30 04:11:52;;;;;;;37.35;14.70;;;;;;;21.35;87.46;97106.44;5076987;28;20035;-76
2021/07/30 04:14:17;;;;;;;31.13;12.07;;;;;;;21.47;86.91;97124.09;5060185;28;20495;-77
2021/07/30 04:16:43;;;;;;;44.38;11.60;;;;;;;21.57;86.78;97131.03;5076942;28;20513;-78
2021/07/30 04:19:08;;;;;;;29.75;11.25;;;;;;;21.58;86.44;97129.19;5076634;28;20042;-76
2021/07/30 04:21:35;;;;;;;36.30;13.77;;;;;;;21.60;85.36;97122.53;5077028;28;20055;-77
2021/07/30 04:24:01;;;;;;;34.10;11.18;;;;;;;21.63;84.94;97124.06;5059817;28;20035;-81
2021/07/30 04:26:29;;;;;;;29.17;10.85;;;;;;;21.68;84.29;97104.47;5059870;28;20024;-82
2021/07/30 04:28:54;;;;;;;32.22;10.95;;;;;;;21.92;83.62;97128.94;5076474;28;20434;-76
2021/07/30 04:31:20;;;;;;;28.95;11.88;;;;;;;21.99;82.56;97110.88;5057722;28;20028;-76
2021/07/30 04:33:46;;;;;;;30.90;11.63;;;;;;;22.60;80.32;97124.53;5073674;28;20074;-76
2021/07/30 04:36:15;;;;;;;39.88;11.95;;;;;;;23.39;76.68;97122.38;5074219;28;20032;-83
2021/07/30 04:38:44;;;;;;;36.60;11.93;;;;;;;23.83;73.93;97117.00;5070113;28;20068;-82
2021/07/30 04:41:10;;;;;;;32.00;11.82;;;;;;;23.93;73.04;97123.91;5034722;28;20452;-82
2021/07/30 04:43:36;;;;;;;34.15;11.52;;;;;;;23.87;73.28;97119.16;5033699;28;20028;-82
2021/07/30 04:46:02;;;;;;;50.55;12.25;;;;;;;23.87;73.83;97127.34;5033494;28;20028;-82
2021/07/30 04:48:28;;;;;;;44.65;17.25;;;;;;;23.63;75.27;97116.69;5038068;28;20039;-82
2021/07/30 04:50:54;;;;;;;58.03;13.02;;;;;;;23.68;75.23;97120.59;5070121;28;20518;-82
2021/07/30 04:53:19;;;;;;;41.28;13.50;;;;;;;23.58;75.52;97125.47;5053339;28;20024;-83
2021/07/30 04:55:45;;;;;;;34.78;13.52;;;;;;;23.77;75.22;97131.41;5038685;28;20036;-82
2021/07/30 04:58:10;;;;;;;29.40;12.05;;;;;;;23.84;74.93;97130.47;5033138;28;20148;-82
2021/07/30 05:00:36;;;;;;;32.35;13.45;;;;;;;24.04;73.95;97139.81;5033538;28;20028;-82
2021/07/30 05:03:02;;;;;;;29.15;13.50;;;;;;;23.73;74.62;97122.75;5033210;28;20043;-81
2021/07/30 05:05:29;;;;;;;26.60;12.98;;;;;;;23.57;74.96;97120.19;5049888;28;20025;-81
2021/07/30 05:07:54;;;;;;;66.80;28.95;;;;;;;23.91;74.37;97138.75;5048567;28;20079;-81
2021/07/30 05:10:20;;;;;;;40.58;13.73;;;;;;;23.81;73.80;97092.59;5041402;28;20044;-84
2021/07/30 05:12:46;;;;;;;33.38;12.77;;;;;;;23.95;73.49;97093.63;5033039;28;20036;-82
2021/07/30 05:15:12;;;;;;;32.78;13.82;;;;;;;24.23;73.18;97114.66;5057839;28;20032;-82
2021/07/30 05:17:39;;;;;;;35.08;12.30;;;;;;;24.50;70.79;97107.63;5047647;28;20532;-82
2021/07/30 05:20:06;;;;;;;49.00;13.68;;;;;;;24.47;69.32;97067.00;5059151;28;20032;-81
2021/07/30 05:22:31;;;;;;;44.20;11.45;;;;;;;25.07;68.82;97126.78;5032962;28;20036;-80
2021/07/30 05:24:57;;;;;;;69.03;13.00;;;;;;;25.19;68.07;97117.03;5032753;28;20037;-80
2021/07/30 05:27:22;;;;;;;99.60;14.35;;;;;;;25.36;66.41;97092.94;5032841;28;20017;-81
2021/07/30 05:29:48;;;;;;;44.85;13.77;;;;;;;27.21;59.88;97114.78;5032666;28;20455;-80
2021/07/30 05:32:13;;;;;;;37.15;12.65;;;;;;;28.12;55.98;97124.09;5032749;28;20557;-81
2021/07/30 05:34:39;;;;;;;60.03;13.43;;;;;;;29.25;52.27;97121.50;5032482;28;20072;-81
2021/07/30 05:37:04;;;;;;;83.80;13.65;;;;;;;30.00;49.49;97122.34;5032386;28;20040;-82
2021/07/30 05:39:31;;;;;;;49.28;12.35;;;;;;;30.14;48.71;97145.16;5032459;28;20472;-84
2021/07/30 05:42:00;;;;;;;31.27;11.43;;;;;;;30.67;47.52;97126.09;5032276;28;20021;-83
2021/07/30 05:44:25;;;;;;;32.25;12.35;;;;;;;31.69;45.29;97123.97;5032446;28;20114;-83
2021/07/30 05:46:51;;;;;;;38.78;10.93;;;;;;;32.47;43.14;97128.34;5032434;28;20472;-83
2021/07/30 05:49:17;;;;;;;33.15;9.80;;;;;;;32.91;42.40;97137.91;5032424;28;20041;-83
2021/07/30 05:51:42;;;;;;;49.83;13.30;;;;;;;32.94;42.43;97142.97;5049036;28;20068;-83
2021/07/30 05:54:07;;;;;;;89.15;14.30;;;;;;;33.17;41.54;97117.94;5032252;28;20043;-84
2021/07/30 05:56:33;;;;;;;190.90;18.38;;;;;;;33.57;40.72;97140.03;5031715;28;20029;-83
2021/07/30 05:58:59;;;;;;;29.95;10.50;;;;;;;34.92;37.88;97131.34;5048663;28;20090;-84
2021/07/30 06:01:24;;;;;;;215.40;19.90;;;;;;;35.80;36.50;97134.59;5032115;28;20040;-84
2021/07/30 06:03:50;;;;;;;93.00;14.20;;;;;;;36.20;35.78;97142.44;5048624;28;20438;-83
2021/07/30 06:06:16;;;;;;;48.38;12.77;;;;;;;36.80;33.98;97130.84;5032041;28;20439;-84
2021/07/30 06:08:42;;;;;;;85.82;14.73;;;;;;;37.73;32.89;97142.91;5031710;28;20064;-84
2021/07/30 06:11:07;;;;;;;141.57;16.60;;;;;;;37.68;32.92;97140.13;5031903;28;20029;-84
2021/07/30 06:13:33;;;;;;;60.70;13.27;;;;;;;36.91;34.61;97152.13;5032334;28;20493;-83
2021/07/30 06:15:58;;;;;;;39.47;10.70;;;;;;;35.66;35.95;97155.59;5048554;28;20047;-84
2021/07/30 06:18:25;;;;;;;27.70;10.63;;;;;;;36.23;35.85;97161.41;5031661;28;20393;-83
2021/07/30 06:20:51;;;;;;;28.38;10.57;;;;;;;36.80;34.24;97149.53;5048354;28;20094;-83
2021/07/30 06:23:17;;;;;;;27.38;9.50;;;;;;;36.28;34.95;97163.38;5031832;28;20036;-83
2021/07/30 06:25:43;;;;;;;248.60;17.58;;;;;;;37.89;32.79;97164.16;5048008;28;20559;-84
2021/07/30 06:28:08;;;;;;;173.35;18.63;;;;;;;37.25;33.33;97154.50;5047497;28;20021;-84
2021/07/30 06:30:34;;;;;;;25.83;9.55;;;;;;;37.79;32.45;97164.13;5031741;28;20110;-83
2021/07/30 06:32:59;;;;;;;26.10;9.52;;;;;;;38.67;31.47;97164.69;5047741;28;20035;-83
2021/07/30 06:35:26;;;;;;;45.28;11.02;;;;;;;38.86;30.86;97163.00;5048098;28;20029;-83
2021/07/30 06:37:52;;;;;;;38.22;10.48;;;;;;;38.59;30.57;97150.44;5031244;28;20119;-84
2021/07/30 06:40:17;;;;;;;28.42;9.68;;;;;;;39.59;29.38;97154.84;5047783;28;20484;-84
2021/07/30 06:42:43;;;;;;;25.58;9.13;;;;;;;39.68;28.45;97147.53;5031385;28;20033;-85
2021/07/30 06:45:09;;;;;;;29.40;9.63;;;;;;;39.37;29.38;97151.63;5047959;28;20045;-85
2021/07/30 06:47:36;;;;;;;21.60;10.55;;;;;;;40.08;28.32;97155.66;5048131;28;20028;-85
2021/07/30 06:50:03;;;;;;;40.65;9.38;;;;;;;39.70;28.84;97162.09;5030996;28;20455;-84
2021/07/30 06:52:29;;;;;;;34.30;10.00;;;;;;;40.13;27.88;97142.72;5031224;28;20036;-83
2021/07/30 06:54:54;;;;;;;90.18;15.20;;;;;;;40.62;27.73;97157.44;5030707;28;20026;-83
2021/07/30 06:57:20;;;;;;;39.72;10.75;;;;;;;41.26;26.65;97154.16;5031038;28;20047;-83
2021/07/30 06:59:47;;;;;;;32.60;9.30;;;;;;;39.29;28.81;97169.84;5031539;28;20086;-83
2021/07/30 07:02:13;;;;;;;33.03;9.35;;;;;;;39.31;29.04;97163.97;5031222;28;20040;-84
2021/07/30 07:04:38;;;;;;;25.60;9.80;;;;;;;40.43;27.58;97148.03;5030857;28;20466;-84
2021/07/30 08:19:53;;;;;;;31.52;9.45;;;;;;;44.87;21.94;97111.66;5151548;27;20343;-80
2021/07/30 08:22:18;;;;;;;39.10;9.85;;;;;;;45.73;21.53;97123.25;5140213;27;20033;-82
2021/07/30 08:24:44;;;;;;;27.88;9.18;;;;;;;46.36;21.19;97124.56;5125620;27;20114;-81
2021/07/30 08:27:10;;;;;;;27.27;9.45;;;;;;;45.13;21.75;97111.78;5108739;27;20080;-81
2021/07/30 08:29:36;;;;;;;31.95;8.90;;;;;;;45.28;22.11;97117.81;5139642;27;20030;-82
2021/07/30 08:32:02;;;;;;;30.30;9.45;;;;;;;46.05;20.63;97114.28;5141942;27;20031;-83
2021/07/30 08:34:27;;;;;;;437.67;30.83;;;;;;;45.35;21.39;97108.84;5145964;27;20101;-84
2021/07/30 08:36:53;;;;;;;66.35;11.25;;;;;;;46.34;21.24;97110.75;5133455;27;20091;-82
2021/07/30 08:39:18;;;;;;;22.23;8.75;;;;;;;46.99;20.04;97110.41;5140212;27;20019;-79
2021/07/30 08:46:35;;;;;;;26.87;9.00;;;;;;;47.64;19.80;97092.06;5141958;27;20031;-79
2021/07/30 08:49:02;;;;;;;42.88;9.52;;;;;;;47.41;20.59;97093.53;5108833;28;20489;-82
2021/07/30 08:51:28;;;;;;;31.95;8.88;;;;;;;46.43;20.10;97079.59;5117672;27;20038;-80
2021/07/30 08:53:54;;;;;;;32.25;8.48;;;;;;;47.27;19.58;97082.44;5110987;27;20481;-81
2021/07/30 08:56:19;;;;;;;32.92;8.50;;;;;;;47.83;19.10;97079.06;5122333;27;20036;-81
2021/07/30 08:58:46;;;;;;;22.77;8.00;;;;;;;47.57;19.34;97074.75;5113446;27;20035;-81
2021/07/30 09:01:12;;;;;;;78.07;10.68;;;;;;;45.25;20.97;97066.75;5119643;27;20038;-83
2021/07/30 09:03:42;;;;;;;25.92;8.20;;;;;;;44.62;21.50;97065.19;5124862;27;20106;-83
2021/07/30 09:06:18;;;;;;;26.30;8.27;;;;;;;45.64;20.79;97069.47;5133527;27;20455;-83
2021/07/30 09:09:02;;;;;;;28.95;8.57;;;;;;;46.79;19.86;97060.19;5132540;27;20023;-88
2021/07/30 09:11:30;;;;;;;25.95;8.35;;;;;;;47.03;19.90;97045.38;5155043;27;20091;-90
2021/07/30 09:13:56;;;;;;;39.67;8.25;;;;;;;44.81;21.84;97045.16;5116702;27;20066;-89
2021/07/30 09:16:28;;;;;;;30.48;8.48;;;;;;;45.21;21.59;97043.97;5130289;27;20215;-90
2021/07/30 09:18:55;;;;;;;25.63;8.48;;;;;;;46.24;20.40;97046.00;5142666;27;20051;-89
2021/07/30 09:21:31;;;;;;;34.30;9.45;;;;;;;47.49;19.66;97055.78;5109481;27;20035;-88
2021/07/30 09:24:02;;;;;;;23.75;8.23;;;;;;;46.33;19.46;97039.13;5132028;27;20031;-90
2021/07/30 09:26:40;;;;;;;27.55;9.07;;;;;;;47.48;18.64;97043.59;5128304;27;20037;-87
2021/07/30 09:29:09;;;;;;;35.58;7.78;;;;;;;47.90;18.56;97043.66;5116392;28;20394;-89
2021/07/30 09:31:37;;;;;;;39.88;8.88;;;;;;;47.11;19.06;97028.31;5126428;27;20501;-89
2021/07/30 09:34:16;;;;;;;28.17;7.97;;;;;;;47.02;19.22;97023.88;5126488;27;20043;-89
2021/07/30 09:36:57;;;;;;;22.35;7.70;;;;;;;46.78;19.03;97007.50;5120892;27;20030;-89
2021/07/30 09:39:45;;;;;;;26.10;8.73;;;;;;;46.03;19.62;97016.72;5098459;28;20027;-88
2021/07/30 09:42:16;;;;;;;33.22;8.60;;;;;;;46.43;19.64;97005.97;5105392;28;20391;-89
2021/07/30 09:44:52;;;;;;;39.67;9.25;;;;;;;47.28;19.40;97028.25;5103811;28;20039;-89
2021/07/30 09:47:22;;;;;;;33.22;8.02;;;;;;;46.99;19.39;97025.41;5102247;28;20039;-89
2021/07/30 09:49:56;;;;;;;33.22;8.13;;;;;;;46.64;19.48;97019.03;5127266;27;20038;-88
2021/07/30 09:52:25;;;;;;;22.23;8.60;;;;;;;47.26;19.24;97019.25;5112070;27;20042;-88
2021/07/30 09:54:53;;;;;;;49.40;10.10;;;;;;;47.35;19.48;97016.34;5112469;28;20156;-87
2021/07/30 09:57:22;;;;;;;33.38;8.23;;;;;;;47.67;19.43;97021.28;5116374;27;20041;-86
2021/07/30 09:59:48;;;;;;;23.70;7.97;;;;;;;48.27;19.04;97008.56;5107177;28;20027;-87
2021/07/30 10:02:21;;;;;;;35.17;8.52;;;;;;;48.36;18.74;97018.59;5110615;28;20019;-89
2021/07/30 10:04:51;;;;;;;40.78;8.25;;;;;;;47.40;19.23;96995.47;5111355;28;20027;-90
2021/07/30 10:07:19;;;;;;;35.97;8.45;;;;;;;47.14;19.17;97019.13;5108830;27;20035;-90
2021/07/30 10:09:53;;;;;;;25.45;7.60;;;;;;;46.57;19.78;97013.09;5111751;28;20027;-86
2021/07/30 10:12:19;;;;;;;28.98;7.60;;;;;;;47.71;19.09;97012.91;5108046;27;20382;-89
2021/07/30 10:14:45;;;;;;;33.05;8.15;;;;;;;48.09;18.48;97015.53;5120392;27;20121;-90
2021/07/30 10:17:13;;;;;;;31.00;7.63;;;;;;;48.14;19.07;97004.00;5109171;27;20115;-87
2021/07/30 10:19:40;;;;;;;23.75;7.65;;;;;;;48.02;18.71;97001.94;5124612;27;20071;-88
2021/07/30 10:22:07;;;;;;;30.30;8.57;;;;;;;49.02;18.13;97000.56;5105675;28;20065;-88
2021/07/30 10:24:53;;;;;;;40.58;8.30;;;;;;;48.43;18.69;97012.34;5097737;28;20031;-84
2021/07/30 10:27:22;;;;;;;38.83;8.35;;;;;;;46.42;20.23;97004.34;5113197;28;20070;-92
2021/07/30 10:30:06;;;;;;;41.33;8.32;;;;;;;47.05;20.34;97012.69;5105646;28;20043;-90
2021/07/30 10:33:01;;;;;;;33.13;8.63;;;;;;;47.64;19.56;97001.28;5104532;28;20110;-91
2021/07/30 10:35:41;;;;;;;35.10;8.32;;;;;;;45.35;21.24;96997.81;5124556;28;20035;-91
2021/07/30 10:38:38;;;;;;;32.33;8.38;;;;;;;45.37;21.00;96962.38;5107195;28;20024;-90
2021/07/30 10:41:09;;;;;;;29.55;8.63;;;;;;;44.29;21.97;96992.47;5126807;27;20402;-87
2021/07/30 10:43:50;;;;;;;42.42;8.88;;;;;;;44.22;22.23;96987.28;5140047;27;20027;-91
2021/07/30 10:46:16;;;;;;;;;;;;;;;44.64;21.81;96981.00;5137929;27;20035;-88
2021/07/30 10:48:42;;;;;;;41.28;8.15;;;;;;;44.08;22.78;96967.63;5118879;27;20309;-86
2021/07/30 10:54:49;;;;;;;31.33;8.23;;;;;;;44.89;23.84;96978.56;5138417;27;20099;-87
2021/07/30 10:57:47;;;;;;;42.83;8.57;;;;;;;45.11;21.05;96970.81;5119298;27;20024;-89
2021/07/30 11:00:13;;;;;;;28.17;7.72;;;;;;;44.14;22.31;96952.22;5119735;27;20098;-88
2021/07/30 11:03:06;;;;;;;25.70;8.05;;;;;;;44.24;22.20;96957.56;5118542;27;20425;-88
2021/07/30 11:05:34;;;;;;;69.60;9.50;;;;;;;44.34;21.92;96952.78;5120591;27;20046;-89
2021/07/30 11:08:03;;;;;;;25.75;7.75;;;;;;;43.98;22.50;96953.78;5135573;27;20110;-89
2021/07/30 11:10:28;;;;;;;43.92;7.88;;;;;;;43.75;22.26;96937.22;5120878;27;20087;-88
2021/07/30 11:12:55;;;;;;;26.23;7.78;;;;;;;43.78;22.58;96940.22;5100824;28;20028;-90
2021/07/30 11:15:21;;;;;;;37.35;8.38;;;;;;;41.74;25.32;96938.50;5105736;27;20107;-89
2021/07/30 11:17:49;;;;;;;29.48;8.45;;;;;;;42.50;23.64;96945.47;5100032;28;20059;-89
2021/07/30 11:20:14;;;;;;;37.38;9.25;;;;;;;43.15;23.87;96946.84;5113896;27;20031;-90
2021/07/30 11:22:40;;;;;;;121.10;17.88;;;;;;;43.29;24.58;96954.44;5120151;27;20042;-89
2021/07/30 11:25:11;;;;;;;73.20;10.13;;;;;;;43.12;24.20;96944.69;5112285;27;20042;-90
2021/07/30 11:27:36;;;;;;;23.63;7.75;;;;;;;42.70;23.84;96936.63;5120083;27;20027;-89
2021/07/30 11:30:03;;;;;;;130.23;12.55;;;;;;;43.03;24.07;96926.03;5134685;27;20104;-88
2021/07/30 11:32:31;;;;;;;31.88;8.23;;;;;;;42.91;24.89;96923.75;5116908;28;20026;-90
2021/07/30 11:34:57;;;;;;;28.20;7.80;;;;;;;43.22;23.99;96931.50;5105408;27;20015;-89
2021/07/30 11:37:28;;;;;;;25.33;7.63;;;;;;;44.46;23.40;96939.72;5118804;27;20065;-89
2021/07/30 11:39:54;;;;;;;74.13;9.52;;;;;;;45.13;22.17;96940.22;5119809;27;20064;-91
2021/07/30 11:42:31;;;;;;;33.90;8.05;;;;;;;44.30;23.14;96940.53;5099959;28;20035;-90
2021/07/30 11:45:04;;;;;;;28.33;7.43;;;;;;;43.80;23.38;96915.38;5118779;28;20068;-89
2021/07/30 11:47:36;;;;;;;28.38;8.38;;;;;;;44.76;22.31;96926.72;5117270;27;20088;-88
2021/07/30 11:50:09;;;;;;;42.72;9.05;;;;;;;45.03;21.63;96923.63;5133979;27;20027;-91
2021/07/30 11:52:37;;;;;;;27.98;8.38;;;;;;;43.36;23.52;96918.16;5118374;27;20106;-90
2021/07/30 11:55:22;;;;;;;34.03;8.43;;;;;;;43.71;23.52;96911.66;5118620;27;20031;-90
2021/07/30 11:57:49;;;;;;;26.80;8.07;;;;;;;43.34;23.72;96921.31;5122005;27;20019;-92
2021/07/30 12:00:25;;;;;;;31.08;8.30;;;;;;;43.14;23.57;96908.56;5122341;28;20043;-92
2021/07/30 12:02:51;;;;;;;24.48;8.43;;;;;;;44.74;22.51;96898.81;5126750;27;20023;-91
2021/07/30 12:08:39;;;;;;;28.08;7.45;;;;;;;42.36;24.69;96903.31;5143564;28;20038;-89
2021/07/30 12:11:05;;;;;;;29.50;7.38;;;;;;;43.12;23.85;96891.16;5123854;28;20023;-90
2021/07/30 12:13:31;;;;;;;28.38;8.13;;;;;;;43.15;24.20;96906.59;5106612;28;20034;-91
2021/07/30 12:15:56;;;;;;;33.53;8.13;;;;;;;43.09;24.27;96891.81;5122352;28;20031;-91
2021/07/30 12:18:22;;;;;;;31.90;8.20;;;;;;;42.73;24.91;96902.22;5123895;28;20043;-90
2021/07/30 12:20:48;;;;;;;50.72;9.55;;;;;;;41.32;26.20;96910.56;5121197;28;20039;-90
2021/07/30 12:23:18;;;;;;;37.72;8.60;;;;;;;42.61;25.46;96907.53;5101658;28;20030;-90
2021/07/30 12:25:46;;;;;;;137.27;13.15;;;;;;;42.04;25.44;96909.84;5103303;28;20127;-90
2021/07/30 12:28:14;;;;;;;42.15;8.63;;;;;;;41.54;26.30;96897.56;5101030;28;20538;-90
2021/07/30 12:30:40;;;;;;;24.50;7.47;;;;;;;42.01;25.63;96915.25;5102496;28;20043;-91
2021/07/30 12:33:25;;;;;;;76.90;9.55;;;;;;;42.56;24.76;96887.94;5103759;28;20031;-89
2021/07/30 12:36:16;;;;;;;41.70;13.40;;;;;;;43.58;23.61;96887.19;5118675;28;20387;-89
2021/07/30 12:38:59;;;;;;;52.55;8.73;;;;;;;44.64;22.77;96898.31;5097585;28;20474;-91
2021/07/30 12:41:26;;;;;;;125.25;11.07;;;;;;;44.76;21.80;96878.72;5098636;28;20077;-92
2021/07/30 12:43:52;;;;;;;47.97;8.43;;;;;;;43.97;23.07;96861.84;5114402;28;20035;-91
2021/07/30 12:46:39;;;;;;;24.45;7.57;;;;;;;44.36;23.26;96871.47;5116953;28;20024;-92